sensor_id;sensor_type;location;lat;lon;timestamp;pressure;altitude;pressure_sealevel;temperature;humidity
30339;BME280;795;49.296;11.348;2023-02-21T00:00:39;96761.69;;;2.72;100.00
30339;BME280;795;49.296;11.348;2023-02-21T00:03:24;96766.13;;;2.72;100.00
30339;BME280;795;49.296;11.348;2023-02-21T00:06:10;96775.94;;;2.82;100.00
30339;BME280;795;49.296;11.348;2023-02-21T00:08:55;96775.44;;;2.77;100.00
30339;BME280;795;49.296;11.348;2023-02-21T00:11:44;96784.59;;;2.73;100.00
30339;BME280;795;49.296;11.348;2023-02-21T00:14:29;96766.47;;;2.67;100.00
30339;BME280;795;49.296;11.348;2023-02-21T00:17:15;96769.19;;;2.78;100.00
30339;BME280;795;49.296;11.348;2023-02-21T00:20:00;96768.94;;;2.81;100.00
30339;BME280;795;49.296;11.348;2023-02-21T00:22:46;96757.50;;;2.57;100.00
30339;BME280;795;49.296;11.348;2023-02-21T00:25:31;96767.78;;;2.61;100.00
30339;BME280;795;49.296;11.348;2023-02-21T00:28:17;96762.75;;;2.46;100.00
30339;BME280;795;49.296;11.348;2023-02-21T00:31:03;96747.94;;;2.31;100.00
30339;BME280;795;49.296;11.348;2023-02-21T00:33:48;96770.63;;;2.35;100.00
30339;BME280;795;49.296;11.348;2023-02-21T00:36:34;96755.19;;;2.16;100.00
30339;BME280;795;49.296;11.348;2023-02-21T00:39:19;96749.34;;;2.24;100.00
30339;BME280;795;49.296;11.348;2023-02-21T00:42:05;96761.00;;;2.21;100.00
30339;BME280;795;49.296;11.348;2023-02-21T00:44:50;96731.16;;;2.07;100.00
30339;BME280;795;49.296;11.348;2023-02-21T00:47:36;96737.63;;;2.03;100.00
30339;BME280;795;49.296;11.348;2023-02-21T00:50:21;96750.00;;;2.15;100.00
30339;BME280;795;49.296;11.348;2023-02-21T00:53:06;96754.78;;;2.10;100.00
30339;BME280;795;49.296;11.348;2023-02-21T00:55:52;96764.53;;;2.09;100.00
30339;BME280;795;49.296;11.348;2023-02-21T00:58:37;96748.97;;;2.05;100.00
30339;BME280;795;49.296;11.348;2023-02-21T01:01:23;96753.53;;;2.03;100.00
30339;BME280;795;49.296;11.348;2023-02-21T01:04:08;96743.88;;;2.01;100.00
30339;BME280;795;49.296;11.348;2023-02-21T01:06:54;96749.63;;;1.95;100.00
30339;BME280;795;49.296;11.348;2023-02-21T01:09:39;96749.28;;;2.00;100.00
30339;BME280;795;49.296;11.348;2023-02-21T01:12:25;96750.16;;;2.00;100.00
30339;BME280;795;49.296;11.348;2023-02-21T01:15:10;96750.47;;;1.96;100.00
30339;BME280;795;49.296;11.348;2023-02-21T01:17:55;96725.28;;;1.90;100.00
30339;BME280;795;49.296;11.348;2023-02-21T01:20:41;96737.34;;;1.82;100.00
30339;BME280;795;49.296;11.348;2023-02-21T01:23:26;96721.19;;;1.61;100.00
30339;BME280;795;49.296;11.348;2023-02-21T01:26:12;96736.53;;;1.44;100.00
30339;BME280;795;49.296;11.348;2023-02-21T01:28:57;96727.75;;;1.30;100.00
30339;BME280;795;49.296;11.348;2023-02-21T01:31:43;96727.31;;;1.37;100.00
30339;BME280;795;49.296;11.348;2023-02-21T01:34:28;96709.09;;;1.19;100.00
30339;BME280;795;49.296;11.348;2023-02-21T01:37:14;96725.72;;;1.21;100.00
30339;BME280;795;49.296;11.348;2023-02-21T01:39:59;96727.72;;;1.18;100.00
30339;BME280;795;49.296;11.348;2023-02-21T01:42:45;96721.59;;;1.17;100.00
30339;BME280;795;49.296;11.348;2023-02-21T01:45:42;96734.81;;;1.17;100.00
30339;BME280;795;49.296;11.348;2023-02-21T01:48:33;96737.66;;;1.14;100.00
30339;BME280;795;49.296;11.348;2023-02-21T01:51:32;96749.75;;;1.18;100.00
30339;BME280;795;49.296;11.348;2023-02-21T01:54:21;96744.25;;;1.34;100.00
30339;BME280;795;49.296;11.348;2023-02-21T01:57:08;96702.44;;;1.01;100.00
30339;BME280;795;49.296;11.348;2023-02-21T01:59:59;96737.56;;;1.41;100.00
30339;BME280;795;49.296;11.348;2023-02-21T02:02:59;96715.47;;;1.17;100.00
30339;BME280;795;49.296;11.348;2023-02-21T02:06:00;96736.63;;;1.29;100.00
30339;BME280;795;49.296;11.348;2023-02-21T02:08:47;96724.34;;;1.28;100.00
30339;BME280;795;49.296;11.348;2023-02-21T02:12:32;96724.34;;;1.16;100.00
30339;BME280;795;49.296;11.348;2023-02-21T02:15:36;96733.34;;;1.13;100.00
30339;BME280;795;49.296;11.348;2023-02-21T02:22:18;96727.00;;;1.16;100.00
30339;BME280;795;49.296;11.348;2023-02-21T02:25:30;96731.09;;;1.07;100.00
30339;BME280;795;49.296;11.348;2023-02-21T02:37:32;96710.19;;;0.78;100.00
30339;BME280;795;49.296;11.348;2023-02-21T02:43:33;96675.53;;;0.70;100.00
30339;BME280;795;49.296;11.348;2023-02-21T02:46:16;96709.75;;;1.10;100.00
30339;BME280;795;49.296;11.348;2023-02-21T02:49:28;96722.75;;;1.26;100.00
30339;BME280;795;49.296;11.348;2023-02-21T02:52:05;96694.50;;;1.14;100.00
30339;BME280;795;49.296;11.348;2023-02-21T02:54:32;96689.53;;;1.09;100.00
30339;BME280;795;49.296;11.348;2023-02-21T02:57:06;96720.75;;;1.29;100.00
30339;BME280;795;49.296;11.348;2023-02-21T02:59:43;96690.38;;;1.10;100.00
30339;BME280;795;49.296;11.348;2023-02-21T03:08:56;96727.41;;;1.22;100.00
30339;BME280;795;49.296;11.348;2023-02-21T03:11:26;96724.03;;;1.08;100.00
30339;BME280;795;49.296;11.348;2023-02-21T03:14:19;96724.41;;;1.02;100.00
30339;BME280;795;49.296;11.348;2023-02-21T03:16:56;96714.91;;;0.87;100.00
30339;BME280;795;49.296;11.348;2023-02-21T03:19:36;96736.91;;;1.00;100.00
30339;BME280;795;49.296;11.348;2023-02-21T03:22:15;96703.88;;;0.80;100.00
30339;BME280;795;49.296;11.348;2023-02-21T03:24:48;96727.69;;;0.93;100.00
30339;BME280;795;49.296;11.348;2023-02-21T03:27:19;96708.34;;;0.80;100.00
30339;BME280;795;49.296;11.348;2023-02-21T03:29:48;96733.78;;;0.81;100.00
30339;BME280;795;49.296;11.348;2023-02-21T03:32:36;96731.69;;;0.86;100.00
30339;BME280;795;49.296;11.348;2023-02-21T03:35:06;96732.63;;;0.72;100.00
30339;BME280;795;49.296;11.348;2023-02-21T03:37:44;96733.75;;;0.68;100.00
30339;BME280;795;49.296;11.348;2023-02-21T03:40:30;96735.47;;;0.69;100.00
30339;BME280;795;49.296;11.348;2023-02-21T03:43:02;96697.34;;;0.46;100.00
30339;BME280;795;49.296;11.348;2023-02-21T03:45:34;96740.63;;;0.71;100.00
30339;BME280;795;49.296;11.348;2023-02-21T03:48:02;96724.16;;;0.67;100.00
30339;BME280;795;49.296;11.348;2023-02-21T03:50:29;96735.56;;;0.68;100.00
30339;BME280;795;49.296;11.348;2023-02-21T03:52:56;96732.25;;;0.64;100.00
30339;BME280;795;49.296;11.348;2023-02-21T03:55:23;96700.41;;;0.40;100.00
30339;BME280;795;49.296;11.348;2023-02-21T03:57:50;96741.97;;;0.63;100.00
30339;BME280;795;49.296;11.348;2023-02-21T04:00:17;96712.84;;;0.38;100.00
30339;BME280;795;49.296;11.348;2023-02-21T04:02:44;96665.53;;;0.09;100.00
30339;BME280;795;49.296;11.348;2023-02-21T04:05:11;96689.47;;;0.32;100.00
30339;BME280;795;49.296;11.348;2023-02-21T04:07:38;96693.16;;;0.30;100.00
30339;BME280;795;49.296;11.348;2023-02-21T04:10:05;96725.34;;;0.49;100.00
30339;BME280;795;49.296;11.348;2023-02-21T04:12:32;96736.63;;;0.65;100.00
30339;BME280;795;49.296;11.348;2023-02-21T04:14:59;96736.31;;;0.70;100.00
30339;BME280;795;49.296;11.348;2023-02-21T04:17:26;96730.56;;;1.02;100.00
30339;BME280;795;49.296;11.348;2023-02-21T04:19:53;96733.56;;;1.36;100.00
30339;BME280;795;49.296;11.348;2023-02-21T04:22:20;96714.41;;;1.32;100.00
30339;BME280;795;49.296;11.348;2023-02-21T04:24:48;96741.41;;;1.62;100.00
30339;BME280;795;49.296;11.348;2023-02-21T04:27:15;96709.00;;;1.71;100.00
30339;BME280;795;49.296;11.348;2023-02-21T04:29:42;96727.53;;;1.84;100.00
30339;BME280;795;49.296;11.348;2023-02-21T04:32:10;96718.78;;;1.94;100.00
30339;BME280;795;49.296;11.348;2023-02-21T04:34:37;96718.44;;;2.12;100.00
30339;BME280;795;49.296;11.348;2023-02-21T04:37:04;96741.03;;;2.41;100.00
30339;BME280;795;49.296;11.348;2023-02-21T04:39:31;96701.41;;;2.39;100.00
30339;BME280;795;49.296;11.348;2023-02-21T04:41:58;96703.66;;;2.56;100.00
30339;BME280;795;49.296;11.348;2023-02-21T04:44:25;96705.50;;;2.67;100.00
30339;BME280;795;49.296;11.348;2023-02-21T04:46:51;96722.38;;;3.01;100.00
30339;BME280;795;49.296;11.348;2023-02-21T04:49:18;96707.19;;;2.92;100.00
30339;BME280;795;49.296;11.348;2023-02-21T04:51:45;96685.84;;;2.93;100.00
30339;BME280;795;49.296;11.348;2023-02-21T04:54:13;96722.09;;;3.27;100.00
30339;BME280;795;49.296;11.348;2023-02-21T04:56:40;96702.41;;;3.08;100.00
30339;BME280;795;49.296;11.348;2023-02-21T04:59:07;96720.09;;;3.31;100.00
30339;BME280;795;49.296;11.348;2023-02-21T05:01:34;96695.34;;;3.19;100.00
30339;BME280;795;49.296;11.348;2023-02-21T05:04:01;96725.75;;;3.38;100.00
30339;BME280;795;49.296;11.348;2023-02-21T05:06:30;96716.25;;;3.57;100.00
30339;BME280;795;49.296;11.348;2023-02-21T05:08:58;96723.16;;;3.60;100.00
30339;BME280;795;49.296;11.348;2023-02-21T05:11:27;96722.19;;;3.61;100.00
30339;BME280;795;49.296;11.348;2023-02-21T05:13:54;96707.56;;;3.66;100.00
30339;BME280;795;49.296;11.348;2023-02-21T05:16:21;96689.47;;;3.71;100.00
30339;BME280;795;49.296;11.348;2023-02-21T05:18:48;96693.09;;;3.81;100.00
30339;BME280;795;49.296;11.348;2023-02-21T05:21:18;96673.44;;;3.73;100.00
30339;BME280;795;49.296;11.348;2023-02-21T05:23:46;96673.78;;;3.68;100.00
30339;BME280;795;49.296;11.348;2023-02-21T05:26:27;96685.97;;;3.71;100.00
30339;BME280;795;49.296;11.348;2023-02-21T05:28:57;96695.41;;;3.97;100.00
30339;BME280;795;49.296;11.348;2023-02-21T05:31:24;96658.72;;;3.80;100.00
30339;BME280;795;49.296;11.348;2023-02-21T05:33:51;96669.56;;;3.88;100.00
30339;BME280;795;49.296;11.348;2023-02-21T05:36:18;96646.63;;;3.76;100.00
30339;BME280;795;49.296;11.348;2023-02-21T05:38:53;96675.72;;;3.77;100.00
30339;BME280;795;49.296;11.348;2023-02-21T05:41:22;96652.78;;;3.54;100.00
30339;BME280;795;49.296;11.348;2023-02-21T05:43:51;96674.03;;;3.54;100.00
30339;BME280;795;49.296;11.348;2023-02-21T05:46:33;96683.06;;;3.52;100.00
30339;BME280;795;49.296;11.348;2023-02-21T05:49:02;96688.28;;;3.53;100.00
30339;BME280;795;49.296;11.348;2023-02-21T05:51:36;96691.41;;;3.69;100.00
30339;BME280;795;49.296;11.348;2023-02-21T05:54:08;96684.28;;;3.81;100.00
30339;BME280;795;49.296;11.348;2023-02-21T05:56:41;96687.91;;;3.91;100.00
30339;BME280;795;49.296;11.348;2023-02-21T05:59:09;96694.53;;;4.08;100.00
30339;BME280;795;49.296;11.348;2023-02-21T06:01:37;96697.22;;;3.96;100.00
30339;BME280;795;49.296;11.348;2023-02-21T06:04:05;96696.56;;;4.15;100.00
30339;BME280;795;49.296;11.348;2023-02-21T06:06:36;96695.50;;;4.18;100.00
30339;BME280;795;49.296;11.348;2023-02-21T06:09:05;96694.91;;;4.14;100.00
30339;BME280;795;49.296;11.348;2023-02-21T06:11:36;96697.41;;;4.27;100.00
30339;BME280;795;49.296;11.348;2023-02-21T06:14:12;96676.03;;;4.17;100.00
30339;BME280;795;49.296;11.348;2023-02-21T06:16:39;96685.00;;;4.16;100.00
30339;BME280;795;49.296;11.348;2023-02-21T06:19:09;96700.66;;;4.30;100.00
30339;BME280;795;49.296;11.348;2023-02-21T06:21:36;96691.19;;;4.48;100.00
30339;BME280;795;49.296;11.348;2023-02-21T06:24:03;96682.75;;;4.43;100.00
30339;BME280;795;49.296;11.348;2023-02-21T06:26:31;96675.03;;;4.40;100.00
30339;BME280;795;49.296;11.348;2023-02-21T06:28:58;96682.34;;;4.59;100.00
30339;BME280;795;49.296;11.348;2023-02-21T06:31:25;96676.25;;;4.68;100.00
30339;BME280;795;49.296;11.348;2023-02-21T06:33:52;96657.25;;;4.72;100.00
30339;BME280;795;49.296;11.348;2023-02-21T06:36:25;96675.78;;;4.74;100.00
30339;BME280;795;49.296;11.348;2023-02-21T06:38:55;96682.03;;;4.84;100.00
30339;BME280;795;49.296;11.348;2023-02-21T06:41:28;96671.47;;;4.94;100.00
30339;BME280;795;49.296;11.348;2023-02-21T06:43:57;96663.34;;;4.95;100.00
30339;BME280;795;49.296;11.348;2023-02-21T06:46:28;96667.81;;;4.95;100.00
30339;BME280;795;49.296;11.348;2023-02-21T06:48:56;96670.47;;;4.95;100.00
30339;BME280;795;49.296;11.348;2023-02-21T06:51:23;96645.25;;;4.89;100.00
30339;BME280;795;49.296;11.348;2023-02-21T06:53:56;96669.50;;;5.16;100.00
30339;BME280;795;49.296;11.348;2023-02-21T06:56:24;96657.06;;;5.17;100.00
30339;BME280;795;49.296;11.348;2023-02-21T06:58:51;96667.91;;;5.25;100.00
30339;BME280;795;49.296;11.348;2023-02-21T07:01:19;96670.19;;;5.60;100.00
30339;BME280;795;49.296;11.348;2023-02-21T07:03:46;96660.03;;;5.74;100.00
30339;BME280;795;49.296;11.348;2023-02-21T07:06:14;96675.75;;;5.77;100.00
30339;BME280;795;49.296;11.348;2023-02-21T07:08:41;96668.97;;;5.64;100.00
30339;BME280;795;49.296;11.348;2023-02-21T07:11:08;96655.00;;;5.71;100.00
30339;BME280;795;49.296;11.348;2023-02-21T07:13:36;96667.88;;;5.96;100.00
30339;BME280;795;49.296;11.348;2023-02-21T07:16:04;96686.88;;;6.13;100.00
30339;BME280;795;49.296;11.348;2023-02-21T07:18:32;96670.94;;;6.32;100.00
30339;BME280;795;49.296;11.348;2023-02-21T07:20:59;96674.06;;;6.46;100.00
30339;BME280;795;49.296;11.348;2023-02-21T07:23:26;96669.13;;;6.42;100.00
30339;BME280;795;49.296;11.348;2023-02-21T07:25:53;96679.13;;;6.59;100.00
30339;BME280;795;49.296;11.348;2023-02-21T07:28:20;96616.50;;;6.25;100.00
30339;BME280;795;49.296;11.348;2023-02-21T07:30:47;96671.97;;;6.59;100.00
30339;BME280;795;49.296;11.348;2023-02-21T07:33:14;96667.66;;;6.78;100.00
30339;BME280;795;49.296;11.348;2023-02-21T07:35:41;96682.25;;;6.93;100.00
30339;BME280;795;49.296;11.348;2023-02-21T07:38:08;96683.78;;;7.05;100.00
30339;BME280;795;49.296;11.348;2023-02-21T07:40:35;96653.72;;;6.93;100.00
30339;BME280;795;49.296;11.348;2023-02-21T07:43:02;96678.44;;;6.95;100.00
30339;BME280;795;49.296;11.348;2023-02-21T07:45:29;96690.84;;;7.06;100.00
30339;BME280;795;49.296;11.348;2023-02-21T07:47:55;96676.78;;;7.04;100.00
30339;BME280;795;49.296;11.348;2023-02-21T07:50:22;96695.63;;;7.02;100.00
30339;BME280;795;49.296;11.348;2023-02-21T07:52:49;96686.19;;;6.98;100.00
30339;BME280;795;49.296;11.348;2023-02-21T07:55:16;96705.56;;;7.19;100.00
30339;BME280;795;49.296;11.348;2023-02-21T07:57:44;96677.06;;;7.01;100.00
30339;BME280;795;49.296;11.348;2023-02-21T08:00:13;96673.41;;;7.21;100.00
30339;BME280;795;49.296;11.348;2023-02-21T08:02:40;96665.41;;;7.21;100.00
30339;BME280;795;49.296;11.348;2023-02-21T08:05:08;96690.22;;;7.60;100.00
30339;BME280;795;49.296;11.348;2023-02-21T08:07:35;96674.34;;;7.49;100.00
30339;BME280;795;49.296;11.348;2023-02-21T08:10:03;96698.41;;;7.95;100.00
30339;BME280;795;49.296;11.348;2023-02-21T08:12:30;96680.81;;;7.92;100.00
30339;BME280;795;49.296;11.348;2023-02-21T08:14:57;96697.13;;;8.09;100.00
30339;BME280;795;49.296;11.348;2023-02-21T08:17:25;96672.25;;;7.98;100.00
30339;BME280;795;49.296;11.348;2023-02-21T08:19:52;96704.91;;;8.29;100.00
30339;BME280;795;49.296;11.348;2023-02-21T08:22:19;96684.53;;;8.28;100.00
30339;BME280;795;49.296;11.348;2023-02-21T08:24:49;96702.84;;;8.50;100.00
30339;BME280;795;49.296;11.348;2023-02-21T08:27:17;96703.28;;;8.73;100.00
30339;BME280;795;49.296;11.348;2023-02-21T08:29:49;96682.47;;;8.67;100.00
30339;BME280;795;49.296;11.348;2023-02-21T08:32:18;96699.28;;;8.77;100.00
30339;BME280;795;49.296;11.348;2023-02-21T08:34:48;96702.91;;;8.86;100.00
30339;BME280;795;49.296;11.348;2023-02-21T08:37:15;96710.72;;;8.97;100.00
30339;BME280;795;49.296;11.348;2023-02-21T08:39:51;96702.31;;;9.09;100.00
30339;BME280;795;49.296;11.348;2023-02-21T08:42:20;96686.41;;;9.08;100.00
30339;BME280;795;49.296;11.348;2023-02-21T08:44:47;96707.03;;;9.51;100.00
30339;BME280;795;49.296;11.348;2023-02-21T08:47:16;96714.38;;;9.66;100.00
30339;BME280;795;49.296;11.348;2023-02-21T08:49:47;96721.66;;;9.56;100.00
30339;BME280;795;49.296;11.348;2023-02-21T08:52:16;96724.56;;;9.88;100.00
30339;BME280;795;49.296;11.348;2023-02-21T08:54:44;96714.19;;;9.85;100.00
30339;BME280;795;49.296;11.348;2023-02-21T08:57:12;96732.06;;;10.02;100.00
30339;BME280;795;49.296;11.348;2023-02-21T08:59:42;96731.22;;;10.61;100.00
30339;BME280;795;49.296;11.348;2023-02-21T09:04:03;96718.53;;;11.62;90.16
30339;BME280;795;49.296;11.348;2023-02-21T09:06:30;96725.09;;;12.71;80.75
30339;BME280;795;49.296;11.348;2023-02-21T09:08:57;96736.41;;;13.81;73.32
30339;BME280;795;49.296;11.348;2023-02-21T09:11:24;96731.09;;;14.47;68.68
30339;BME280;795;49.296;11.348;2023-02-21T09:13:51;96739.47;;;15.11;65.38
30339;BME280;795;49.296;11.348;2023-02-21T09:16:21;96741.97;;;15.63;62.45
30339;BME280;795;49.296;11.348;2023-02-21T09:18:58;96718.88;;;16.09;61.26
30339;BME280;795;49.296;11.348;2023-02-21T09:21:28;96740.31;;;16.53;59.73
30339;BME280;795;49.296;11.348;2023-02-21T09:23:56;96725.06;;;16.86;57.27
30339;BME280;795;49.296;11.348;2023-02-21T09:26:25;96729.53;;;16.38;56.06
30339;BME280;795;49.296;11.348;2023-02-21T09:28:52;96736.94;;;16.02;57.63
30339;BME280;795;49.296;11.348;2023-02-21T09:31:20;96716.28;;;14.87;60.38
30339;BME280;795;49.296;11.348;2023-02-21T09:33:47;96734.94;;;14.16;63.02
30339;BME280;795;49.296;11.348;2023-02-21T09:36:16;96733.75;;;13.27;68.11
30339;BME280;795;49.296;11.348;2023-02-21T09:38:50;96740.75;;;12.75;70.96
30339;BME280;795;49.296;11.348;2023-02-21T09:41:19;96738.25;;;13.35;69.25
30339;BME280;795;49.296;11.348;2023-02-21T09:43:53;96732.72;;;13.59;68.23
30339;BME280;795;49.296;11.348;2023-02-21T09:46:33;96735.00;;;13.70;67.77
30339;BME280;795;49.296;11.348;2023-02-21T09:49:33;96733.25;;;13.77;68.49
30339;BME280;795;49.296;11.348;2023-02-21T09:52:01;96742.63;;;13.44;70.26
30339;BME280;795;49.296;11.348;2023-02-21T09:54:55;96738.53;;;13.71;69.47
30339;BME280;795;49.296;11.348;2023-02-21T09:57:22;96713.28;;;13.86;68.38
30339;BME280;795;49.296;11.348;2023-02-21T09:59:50;96730.06;;;13.74;68.72
30339;BME280;795;49.296;11.348;2023-02-21T10:02:51;96717.66;;;13.87;68.04
30339;BME280;795;49.296;11.348;2023-02-21T10:05:42;96749.38;;;14.45;68.48
30339;BME280;795;49.296;11.348;2023-02-21T10:14:18;96739.22;;;14.77;65.63
30339;BME280;795;49.296;11.348;2023-02-21T10:17:15;96739.66;;;14.66;67.67
30339;BME280;795;49.296;11.348;2023-02-21T10:19:54;96720.56;;;14.38;66.89
30339;BME280;795;49.296;11.348;2023-02-21T10:22:34;96726.28;;;14.20;69.47
30339;BME280;795;49.296;11.348;2023-02-21T10:25:44;96737.56;;;14.24;68.22
30339;BME280;795;49.296;11.348;2023-02-21T10:28:23;96733.53;;;14.20;68.93
30339;BME280;795;49.296;11.348;2023-02-21T10:31:08;96733.38;;;13.84;71.49
30339;BME280;795;49.296;11.348;2023-02-21T10:33:38;96712.75;;;14.57;68.43
30339;BME280;795;49.296;11.348;2023-02-21T10:36:21;96731.22;;;15.19;65.35
30339;BME280;795;49.296;11.348;2023-02-21T10:39:28;96730.81;;;15.01;66.09
30339;BME280;795;49.296;11.348;2023-02-21T10:41:58;96723.16;;;15.76;63.08
30339;BME280;795;49.296;11.348;2023-02-21T10:44:31;96723.47;;;15.87;61.18
30339;BME280;795;49.296;11.348;2023-02-21T10:47:22;96730.44;;;15.97;61.28
30339;BME280;795;49.296;11.348;2023-02-21T10:50:07;96728.66;;;16.31;60.58
30339;BME280;795;49.296;11.348;2023-02-21T10:52:49;96730.47;;;15.40;61.51
30339;BME280;795;49.296;11.348;2023-02-21T10:55:22;96706.97;;;14.75;63.84
30339;BME280;795;49.296;11.348;2023-02-21T10:58:09;96724.22;;;14.59;66.23
30339;BME280;795;49.296;11.348;2023-02-21T11:00:44;96721.81;;;14.13;68.37
30339;BME280;795;49.296;11.348;2023-02-21T11:03:23;96720.28;;;13.95;68.78
30339;BME280;795;49.296;11.348;2023-02-21T11:05:57;96688.34;;;13.84;70.37
30339;BME280;795;49.296;11.348;2023-02-21T11:08:41;96703.22;;;13.58;71.21
30339;BME280;795;49.296;11.348;2023-02-21T11:11:10;96708.81;;;13.56;74.21
30339;BME280;795;49.296;11.348;2023-02-21T11:13:37;96711.19;;;13.74;73.97
30339;BME280;795;49.296;11.348;2023-02-21T11:16:18;96708.19;;;14.06;72.85
30339;BME280;795;49.296;11.348;2023-02-21T11:18:45;96699.81;;;14.38;70.81
30339;BME280;795;49.296;11.348;2023-02-21T11:21:18;96697.75;;;14.55;70.09
30339;BME280;795;49.296;11.348;2023-02-21T11:24:04;96703.31;;;14.39;70.24
30339;BME280;795;49.296;11.348;2023-02-21T11:26:44;96703.63;;;13.92;72.15
30339;BME280;795;49.296;11.348;2023-02-21T11:29:23;96675.00;;;13.68;73.77
30339;BME280;795;49.296;11.348;2023-02-21T11:31:54;96685.22;;;13.73;75.36
30339;BME280;795;49.296;11.348;2023-02-21T11:34:28;96682.03;;;13.92;74.36
30339;BME280;795;49.296;11.348;2023-02-21T11:37:03;96688.75;;;14.11;73.57
30339;BME280;795;49.296;11.348;2023-02-21T11:39:34;96671.94;;;13.86;74.72
30339;BME280;795;49.296;11.348;2023-02-21T11:42:22;96664.97;;;13.91;74.08
30339;BME280;795;49.296;11.348;2023-02-21T11:45:39;96663.84;;;14.38;71.56
30339;BME280;795;49.296;11.348;2023-02-21T11:48:17;96669.53;;;15.08;67.88
30339;BME280;795;49.296;11.348;2023-02-21T11:50:52;96664.75;;;15.88;65.66
30339;BME280;795;49.296;11.348;2023-02-21T11:53:29;96665.94;;;15.79;63.55
30339;BME280;795;49.296;11.348;2023-02-21T11:56:55;96649.78;;;15.07;66.56
30339;BME280;795;49.296;11.348;2023-02-21T11:59:49;96649.81;;;15.71;64.99
30339;BME280;795;49.296;11.348;2023-02-21T12:02:51;96651.63;;;15.43;65.38
30339;BME280;795;49.296;11.348;2023-02-21T12:05:48;96635.00;;;15.94;63.09
30339;BME280;795;49.296;11.348;2023-02-21T12:08:58;96607.09;;;15.03;65.17
30339;BME280;795;49.296;11.348;2023-02-21T12:14:39;96624.28;;;18.54;55.77
30339;BME280;795;49.296;11.348;2023-02-21T12:17:41;96626.00;;;20.31;51.12
30339;BME280;795;49.296;11.348;2023-02-21T12:20:44;96611.84;;;21.73;46.36
30339;BME280;795;49.296;11.348;2023-02-21T12:27:20;96631.00;;;22.72;43.42
30339;BME280;795;49.296;11.348;2023-02-21T12:42:43;96606.31;;;21.02;46.84
30339;BME280;795;49.296;11.348;2023-02-21T12:46:00;96591.16;;;21.24;45.44
30339;BME280;795;49.296;11.348;2023-02-21T12:49:21;96585.56;;;21.60;44.96
30339;BME280;795;49.296;11.348;2023-02-21T12:52:05;96583.75;;;21.54;45.42
30339;BME280;795;49.296;11.348;2023-02-21T12:55:03;96568.03;;;21.08;45.89
30339;BME280;795;49.296;11.348;2023-02-21T13:00:35;96559.94;;;20.47;47.38
30339;BME280;795;49.296;11.348;2023-02-21T13:03:46;96561.34;;;18.95;50.44
30339;BME280;795;49.296;11.348;2023-02-21T13:09:42;96552.72;;;18.61;52.79
30339;BME280;795;49.296;11.348;2023-02-21T13:12:24;96545.59;;;17.76;53.99
30339;BME280;795;49.296;11.348;2023-02-21T13:15:22;96530.00;;;16.72;56.78
30339;BME280;795;49.296;11.348;2023-02-21T13:18:23;96508.00;;;17.40;56.17
30339;BME280;795;49.296;11.348;2023-02-21T13:21:23;96516.63;;;19.72;50.76
30339;BME280;795;49.296;11.348;2023-02-21T13:27:43;96520.34;;;20.20;49.23
30339;BME280;795;49.296;11.348;2023-02-21T13:30:39;96513.44;;;20.42;48.55
30339;BME280;795;49.296;11.348;2023-02-21T13:33:48;96524.91;;;22.05;45.30
30339;BME280;795;49.296;11.348;2023-02-21T13:39:20;96518.34;;;22.52;43.91
30339;BME280;795;49.296;11.348;2023-02-21T13:42:16;96505.75;;;22.39;44.00
30339;BME280;795;49.296;11.348;2023-02-21T13:45:17;96503.03;;;22.91;43.22
30339;BME280;795;49.296;11.348;2023-02-21T13:56:15;96492.81;;;23.31;42.27
30339;BME280;795;49.296;11.348;2023-02-21T13:58:47;96500.28;;;23.64;42.05
30339;BME280;795;49.296;11.348;2023-02-21T14:03:56;96474.72;;;22.85;42.39
30339;BME280;795;49.296;11.348;2023-02-21T14:06:35;96492.94;;;22.05;43.67
30339;BME280;795;49.296;11.348;2023-02-21T14:09:17;96479.00;;;19.62;48.55
30339;BME280;795;49.296;11.348;2023-02-21T14:11:50;96474.63;;;18.30;52.25
30339;BME280;795;49.296;11.348;2023-02-21T14:14:29;96477.72;;;19.47;51.39
30339;BME280;795;49.296;11.348;2023-02-21T14:17:11;96448.00;;;21.43;46.57
30339;BME280;795;49.296;11.348;2023-02-21T14:19:49;96477.41;;;22.45;44.07
30339;BME280;795;49.296;11.348;2023-02-21T14:22:27;96464.19;;;23.89;41.32
30339;BME280;795;49.296;11.348;2023-02-21T14:25:20;96465.97;;;23.78;41.51
30339;BME280;795;49.296;11.348;2023-02-21T14:27:50;96467.59;;;22.33;43.55
30339;BME280;795;49.296;11.348;2023-02-21T14:30:31;96460.03;;;21.89;44.78
30339;BME280;795;49.296;11.348;2023-02-21T14:33:24;96464.97;;;21.80;44.89
30339;BME280;795;49.296;11.348;2023-02-21T14:36:05;96456.78;;;20.74;46.60
30339;BME280;795;49.296;11.348;2023-02-21T14:38:40;96464.75;;;20.76;47.19
30339;BME280;795;49.296;11.348;2023-02-21T14:55:10;96443.03;;;18.29;54.50
30339;BME280;795;49.296;11.348;2023-02-21T14:58:29;96434.28;;;20.31;49.73
30339;BME280;795;49.296;11.348;2023-02-21T15:04:35;96427.34;;;21.94;45.68
30339;BME280;795;49.296;11.348;2023-02-21T15:07:35;96432.47;;;22.81;43.86
30339;BME280;795;49.296;11.348;2023-02-21T15:10:39;96431.69;;;23.59;42.41
30339;BME280;795;49.296;11.348;2023-02-21T15:13:31;96440.25;;;21.40;45.94
30339;BME280;795;49.296;11.348;2023-02-21T15:16:12;96427.38;;;19.74;49.71
30339;BME280;795;49.296;11.348;2023-02-21T15:19:00;96428.50;;;19.84;49.86
30339;BME280;795;49.296;11.348;2023-02-21T15:21:27;96417.25;;;19.81;50.33
30339;BME280;795;49.296;11.348;2023-02-21T15:24:14;96421.59;;;20.18;49.23
30339;BME280;795;49.296;11.348;2023-02-21T15:26:42;96396.41;;;19.86;49.15
30339;BME280;795;49.296;11.348;2023-02-21T15:29:16;96425.28;;;19.27;50.69
30339;BME280;795;49.296;11.348;2023-02-21T15:31:55;96402.94;;;19.43;50.99
30339;BME280;795;49.296;11.348;2023-02-21T15:34:36;96413.84;;;18.62;52.77
30339;BME280;795;49.296;11.348;2023-02-21T15:37:27;96408.53;;;18.74;52.65